sensor_id;sensor_type;location;lat;lon;timestamp;P1;durP1;ratioP1;P2;durP2;ratioP2
61640;SDS011;62201;49.966;8.342;2022-12-07T00:01:14;16.03;;;11.20;;
61640;SDS011;62201;49.966;8.342;2022-12-07T00:03:48;16.03;;;11.10;;
61640;SDS011;62201;49.966;8.342;2022-12-07T00:06:16;17.53;;;11.30;;
61640;SDS011;62201;49.966;8.342;2022-12-07T00:08:42;15.87;;;10.13;;
61640;SDS011;62201;49.966;8.342;2022-12-07T00:11:20;18.90;;;10.73;;
61640;SDS011;62201;49.966;8.342;2022-12-07T00:13:47;15.90;;;10.97;;
61640;SDS011;62201;49.966;8.342;2022-12-07T00:16:16;16.63;;;11.13;;
61640;SDS011;62201;49.966;8.342;2022-12-07T00:18:43;13.33;;;9.50;;
61640;SDS011;62201;49.966;8.342;2022-12-07T00:21:13;15.17;;;10.40;;
61640;SDS011;62201;49.966;8.342;2022-12-07T00:23:44;17.43;;;10.73;;
61640;SDS011;62201;49.966;8.342;2022-12-07T00:26:12;15.47;;;10.47;;
61640;SDS011;62201;49.966;8.342;2022-12-07T00:28:49;16.33;;;11.40;;
61640;SDS011;62201;49.966;8.342;2022-12-07T00:31:19;15.33;;;10.30;;
61640;SDS011;62201;49.966;8.342;2022-12-07T00:33:46;16.03;;;10.50;;
61640;SDS011;62201;49.966;8.342;2022-12-07T00:36:16;18.63;;;10.13;;
61640;SDS011;62201;49.966;8.342;2022-12-07T00:38:43;14.50;;;10.33;;
61640;SDS011;62201;49.966;8.342;2022-12-07T00:41:18;13.60;;;9.70;;
61640;SDS011;62201;49.966;8.342;2022-12-07T00:43:46;17.03;;;10.13;;
61640;SDS011;62201;49.966;8.342;2022-12-07T00:46:12;16.73;;;10.53;;
61640;SDS011;62201;49.966;8.342;2022-12-07T00:48:39;14.47;;;9.87;;
61640;SDS011;62201;49.966;8.342;2022-12-07T00:51:05;18.83;;;9.83;;
61640;SDS011;62201;49.966;8.342;2022-12-07T00:53:31;15.57;;;10.30;;
61640;SDS011;62201;49.966;8.342;2022-12-07T00:56:09;16.80;;;10.70;;
61640;SDS011;62201;49.966;8.342;2022-12-07T00:58:39;15.43;;;10.03;;
61640;SDS011;62201;49.966;8.342;2022-12-07T01:01:05;15.30;;;9.97;;
61640;SDS011;62201;49.966;8.342;2022-12-07T01:03:32;16.03;;;9.67;;
61640;SDS011;62201;49.966;8.342;2022-12-07T01:05:59;13.53;;;9.63;;
61640;SDS011;62201;49.966;8.342;2022-12-07T01:08:24;12.43;;;9.00;;
61640;SDS011;62201;49.966;8.342;2022-12-07T01:11:01;14.10;;;9.47;;
61640;SDS011;62201;49.966;8.342;2022-12-07T01:13:31;15.87;;;9.53;;
61640;SDS011;62201;49.966;8.342;2022-12-07T01:15:58;15.73;;;9.87;;
61640;SDS011;62201;49.966;8.342;2022-12-07T01:18:26;15.47;;;9.60;;
61640;SDS011;62201;49.966;8.342;2022-12-07T01:20:59;14.30;;;9.73;;
61640;SDS011;62201;49.966;8.342;2022-12-07T01:23:39;14.93;;;10.33;;
61640;SDS011;62201;49.966;8.342;2022-12-07T01:26:06;15.53;;;9.30;;
61640;SDS011;62201;49.966;8.342;2022-12-07T01:28:34;13.67;;;9.03;;
61640;SDS011;62201;49.966;8.342;2022-12-07T01:31:01;17.43;;;10.20;;
61640;SDS011;62201;49.966;8.342;2022-12-07T01:33:29;13.77;;;9.40;;
61640;SDS011;62201;49.966;8.342;2022-12-07T01:36:04;14.10;;;9.20;;
61640;SDS011;62201;49.966;8.342;2022-12-07T01:38:31;13.93;;;9.23;;
61640;SDS011;62201;49.966;8.342;2022-12-07T01:40:57;15.70;;;9.63;;
61640;SDS011;62201;49.966;8.342;2022-12-07T01:43:23;14.17;;;9.30;;
61640;SDS011;62201;49.966;8.342;2022-12-07T01:45:50;14.47;;;9.13;;
61640;SDS011;62201;49.966;8.342;2022-12-07T01:48:16;13.13;;;8.80;;
61640;SDS011;62201;49.966;8.342;2022-12-07T01:50:45;14.70;;;9.40;;
61640;SDS011;62201;49.966;8.342;2022-12-07T01:53:13;14.77;;;9.93;;
61640;SDS011;62201;49.966;8.342;2022-12-07T01:55:41;12.40;;;8.77;;
61640;SDS011;62201;49.966;8.342;2022-12-07T01:58:09;13.67;;;9.37;;
61640;SDS011;62201;49.966;8.342;2022-12-07T02:00:36;13.63;;;9.37;;
61640;SDS011;62201;49.966;8.342;2022-12-07T02:05:30;12.30;;;8.90;;
61640;SDS011;62201;49.966;8.342;2022-12-07T02:07:57;13.33;;;8.60;;
61640;SDS011;62201;49.966;8.342;2022-12-07T02:10:25;15.27;;;9.10;;
61640;SDS011;62201;49.966;8.342;2022-12-07T02:12:53;13.63;;;8.90;;
61640;SDS011;62201;49.966;8.342;2022-12-07T02:15:25;15.47;;;9.60;;
61640;SDS011;62201;49.966;8.342;2022-12-07T02:20:42;13.50;;;9.40;;
61640;SDS011;62201;49.966;8.342;2022-12-07T02:26:35;16.23;;;10.00;;
61640;SDS011;62201;49.966;8.342;2022-12-07T02:29:10;16.53;;;10.60;;
61640;SDS011;62201;49.966;8.342;2022-12-07T02:32:06;16.90;;;9.53;;
61640;SDS011;62201;49.966;8.342;2022-12-07T02:34:52;14.77;;;9.30;;
61640;SDS011;62201;49.966;8.342;2022-12-07T02:37:31;17.17;;;10.43;;
61640;SDS011;62201;49.966;8.342;2022-12-07T02:42:40;16.53;;;9.60;;
61640;SDS011;62201;49.966;8.342;2022-12-07T02:45:11;15.53;;;10.03;;
61640;SDS011;62201;49.966;8.342;2022-12-07T02:47:40;14.57;;;10.03;;
61640;SDS011;62201;49.966;8.342;2022-12-07T02:50:06;15.47;;;9.37;;
61640;SDS011;62201;49.966;8.342;2022-12-07T02:52:32;13.57;;;9.37;;
61640;SDS011;62201;49.966;8.342;2022-12-07T02:54:58;15.20;;;9.10;;
61640;SDS011;62201;49.966;8.342;2022-12-07T02:57:29;14.83;;;9.67;;
61640;SDS011;62201;49.966;8.342;2022-12-07T03:00:19;15.87;;;9.73;;
61640;SDS011;62201;49.966;8.342;2022-12-07T03:02:58;13.73;;;8.80;;
61640;SDS011;62201;49.966;8.342;2022-12-07T03:08:08;13.67;;;9.10;;
61640;SDS011;62201;49.966;8.342;2022-12-07T03:10:59;12.07;;;8.10;;
61640;SDS011;62201;49.966;8.342;2022-12-07T03:16:15;15.30;;;8.90;;
61640;SDS011;62201;49.966;8.342;2022-12-07T03:21:18;17.07;;;8.50;;
61640;SDS011;62201;49.966;8.342;2022-12-07T03:23:49;13.60;;;8.70;;
61640;SDS011;62201;49.966;8.342;2022-12-07T03:26:19;12.37;;;8.27;;
61640;SDS011;62201;49.966;8.342;2022-12-07T03:28:50;12.20;;;7.70;;
61640;SDS011;62201;49.966;8.342;2022-12-07T03:31:25;14.83;;;8.67;;
61640;SDS011;62201;49.966;8.342;2022-12-07T03:34:11;13.57;;;8.27;;
61640;SDS011;62201;49.966;8.342;2022-12-07T03:37:02;14.90;;;8.70;;
61640;SDS011;62201;49.966;8.342;2022-12-07T03:39:45;11.17;;;7.50;;
61640;SDS011;62201;49.966;8.342;2022-12-07T03:42:18;15.10;;;8.00;;
61640;SDS011;62201;49.966;8.342;2022-12-07T03:44:44;10.03;;;7.70;;
61640;SDS011;62201;49.966;8.342;2022-12-07T03:47:29;11.73;;;8.00;;
61640;SDS011;62201;49.966;8.342;2022-12-07T03:53:18;12.37;;;7.60;;
61640;SDS011;62201;49.966;8.342;2022-12-07T03:56:09;13.20;;;7.90;;
61640;SDS011;62201;49.966;8.342;2022-12-07T03:58:45;12.40;;;7.90;;
61640;SDS011;62201;49.966;8.342;2022-12-07T04:01:11;12.37;;;8.00;;
61640;SDS011;62201;49.966;8.342;2022-12-07T04:03:36;13.03;;;7.10;;
61640;SDS011;62201;49.966;8.342;2022-12-07T04:06:02;10.93;;;7.00;;
61640;SDS011;62201;49.966;8.342;2022-12-07T04:08:27;12.30;;;7.33;;
61640;SDS011;62201;49.966;8.342;2022-12-07T04:10:53;10.23;;;6.50;;
61640;SDS011;62201;49.966;8.342;2022-12-07T04:13:18;12.37;;;7.57;;
61640;SDS011;62201;49.966;8.342;2022-12-07T04:15:43;11.03;;;7.50;;
61640;SDS011;62201;49.966;8.342;2022-12-07T04:18:09;11.80;;;7.20;;
61640;SDS011;62201;49.966;8.342;2022-12-07T04:20:34;11.57;;;7.30;;
61640;SDS011;62201;49.966;8.342;2022-12-07T04:22:59;15.57;;;7.17;;
61640;SDS011;62201;49.966;8.342;2022-12-07T04:25:25;11.37;;;7.03;;
61640;SDS011;62201;49.966;8.342;2022-12-07T04:27:50;10.47;;;7.07;;
61640;SDS011;62201;49.966;8.342;2022-12-07T04:30:16;11.50;;;7.00;;
61640;SDS011;62201;49.966;8.342;2022-12-07T04:32:41;11.80;;;7.00;;
61640;SDS011;62201;49.966;8.342;2022-12-07T04:35:07;9.70;;;6.37;;
61640;SDS011;62201;49.966;8.342;2022-12-07T04:37:33;12.03;;;7.00;;
61640;SDS011;62201;49.966;8.342;2022-12-07T04:39:58;11.27;;;7.70;;
61640;SDS011;62201;49.966;8.342;2022-12-07T04:42:24;14.77;;;7.70;;
61640;SDS011;62201;49.966;8.342;2022-12-07T04:44:49;10.60;;;7.33;;
61640;SDS011;62201;49.966;8.342;2022-12-07T04:47:15;12.60;;;7.33;;
61640;SDS011;62201;49.966;8.342;2022-12-07T04:49:41;10.97;;;7.63;;
61640;SDS011;62201;49.966;8.342;2022-12-07T04:52:06;12.23;;;7.53;;
61640;SDS011;62201;49.966;8.342;2022-12-07T04:54:32;11.60;;;7.33;;
61640;SDS011;62201;49.966;8.342;2022-12-07T04:56:57;12.03;;;7.83;;
61640;SDS011;62201;49.966;8.342;2022-12-07T04:59:22;12.00;;;7.63;;
61640;SDS011;62201;49.966;8.342;2022-12-07T05:01:48;10.87;;;7.50;;
61640;SDS011;62201;49.966;8.342;2022-12-07T05:04:13;13.97;;;8.63;;
61640;SDS011;62201;49.966;8.342;2022-12-07T05:06:40;14.67;;;8.33;;
61640;SDS011;62201;49.966;8.342;2022-12-07T05:09:06;12.17;;;8.27;;
61640;SDS011;62201;49.966;8.342;2022-12-07T05:11:32;13.93;;;8.80;;
61640;SDS011;62201;49.966;8.342;2022-12-07T05:14:04;12.17;;;8.43;;
61640;SDS011;62201;49.966;8.342;2022-12-07T05:16:31;14.63;;;8.87;;
61640;SDS011;62201;49.966;8.342;2022-12-07T05:18:57;14.07;;;9.20;;
61640;SDS011;62201;49.966;8.342;2022-12-07T05:21:23;16.97;;;9.20;;
61640;SDS011;62201;49.966;8.342;2022-12-07T05:23:48;13.23;;;8.70;;
61640;SDS011;62201;49.966;8.342;2022-12-07T05:26:14;11.60;;;8.27;;
61640;SDS011;62201;49.966;8.342;2022-12-07T05:28:39;13.30;;;9.77;;
61640;SDS011;62201;49.966;8.342;2022-12-07T05:31:05;12.97;;;9.07;;
61640;SDS011;62201;49.966;8.342;2022-12-07T05:33:30;18.23;;;8.70;;
61640;SDS011;62201;49.966;8.342;2022-12-07T05:35:55;13.97;;;8.97;;
61640;SDS011;62201;49.966;8.342;2022-12-07T05:38:21;15.70;;;9.50;;
61640;SDS011;62201;49.966;8.342;2022-12-07T05:40:46;15.83;;;8.87;;
61640;SDS011;62201;49.966;8.342;2022-12-07T05:43:12;13.27;;;9.67;;
61640;SDS011;62201;49.966;8.342;2022-12-07T05:45:37;15.80;;;9.73;;
61640;SDS011;62201;49.966;8.342;2022-12-07T05:48:02;12.70;;;8.77;;
61640;SDS011;62201;49.966;8.342;2022-12-07T05:50:28;12.60;;;9.47;;
61640;SDS011;62201;49.966;8.342;2022-12-07T05:52:53;16.83;;;10.13;;
61640;SDS011;62201;49.966;8.342;2022-12-07T05:55:19;15.17;;;9.87;;
61640;SDS011;62201;49.966;8.342;2022-12-07T05:57:44;12.77;;;8.83;;
61640;SDS011;62201;49.966;8.342;2022-12-07T06:00:30;14.43;;;9.53;;
61640;SDS011;62201;49.966;8.342;2022-12-07T06:02:55;12.47;;;8.80;;
61640;SDS011;62201;49.966;8.342;2022-12-07T06:05:20;13.00;;;8.60;;
61640;SDS011;62201;49.966;8.342;2022-12-07T06:07:46;12.23;;;9.10;;
61640;SDS011;62201;49.966;8.342;2022-12-07T06:10:11;12.50;;;9.20;;
61640;SDS011;62201;49.966;8.342;2022-12-07T06:12:36;11.77;;;8.03;;
61640;SDS011;62201;49.966;8.342;2022-12-07T06:15:04;12.70;;;8.47;;
61640;SDS011;62201;49.966;8.342;2022-12-07T06:17:30;12.37;;;9.43;;
61640;SDS011;62201;49.966;8.342;2022-12-07T06:19:56;12.40;;;9.27;;
61640;SDS011;62201;49.966;8.342;2022-12-07T06:22:22;11.70;;;9.00;;
61640;SDS011;62201;49.966;8.342;2022-12-07T06:24:47;12.63;;;9.30;;
61640;SDS011;62201;49.966;8.342;2022-12-07T06:27:13;14.27;;;9.27;;
61640;SDS011;62201;49.966;8.342;2022-12-07T06:29:38;13.47;;;9.13;;
61640;SDS011;62201;49.966;8.342;2022-12-07T06:32:04;12.90;;;9.83;;
61640;SDS011;62201;49.966;8.342;2022-12-07T06:34:30;13.50;;;9.67;;
61640;SDS011;62201;49.966;8.342;2022-12-07T06:36:56;14.33;;;9.80;;
61640;SDS011;62201;49.966;8.342;2022-12-07T06:39:22;14.97;;;10.03;;
61640;SDS011;62201;49.966;8.342;2022-12-07T06:41:49;13.60;;;9.33;;
61640;SDS011;62201;49.966;8.342;2022-12-07T06:44:16;12.93;;;9.47;;
61640;SDS011;62201;49.966;8.342;2022-12-07T06:46:42;13.13;;;9.47;;
61640;SDS011;62201;49.966;8.342;2022-12-07T06:49:07;12.90;;;9.40;;
61640;SDS011;62201;49.966;8.342;2022-12-07T06:51:32;12.77;;;8.90;;
61640;SDS011;62201;49.966;8.342;2022-12-07T06:54:01;11.10;;;8.50;;
61640;SDS011;62201;49.966;8.342;2022-12-07T06:56:28;15.20;;;9.57;;
61640;SDS011;62201;49.966;8.342;2022-12-07T06:58:53;12.77;;;9.60;;
61640;SDS011;62201;49.966;8.342;2022-12-07T07:01:19;11.73;;;9.07;;
61640;SDS011;62201;49.966;8.342;2022-12-07T07:03:45;15.67;;;9.90;;
61640;SDS011;62201;49.966;8.342;2022-12-07T07:06:11;14.93;;;8.90;;
61640;SDS011;62201;49.966;8.342;2022-12-07T07:08:38;12.20;;;8.67;;
61640;SDS011;62201;49.966;8.342;2022-12-07T07:11:04;12.93;;;9.23;;
61640;SDS011;62201;49.966;8.342;2022-12-07T07:13:30;12.37;;;8.80;;
61640;SDS011;62201;49.966;8.342;2022-12-07T07:15:55;15.60;;;9.83;;
61640;SDS011;62201;49.966;8.342;2022-12-07T07:18:21;13.20;;;8.93;;
61640;SDS011;62201;49.966;8.342;2022-12-07T07:20:47;13.07;;;9.60;;
61640;SDS011;62201;49.966;8.342;2022-12-07T07:23:12;12.37;;;8.97;;
61640;SDS011;62201;49.966;8.342;2022-12-07T07:25:37;12.20;;;8.97;;
61640;SDS011;62201;49.966;8.342;2022-12-07T07:28:03;13.00;;;9.83;;
61640;SDS011;62201;49.966;8.342;2022-12-07T07:30:29;12.77;;;9.50;;
61640;SDS011;62201;49.966;8.342;2022-12-07T07:32:58;14.50;;;9.73;;
61640;SDS011;62201;49.966;8.342;2022-12-07T07:35:27;15.20;;;10.40;;
61640;SDS011;62201;49.966;8.342;2022-12-07T07:37:54;16.10;;;10.13;;
61640;SDS011;62201;49.966;8.342;2022-12-07T07:40:20;13.80;;;10.13;;
61640;SDS011;62201;49.966;8.342;2022-12-07T07:42:49;15.23;;;10.10;;
61640;SDS011;62201;49.966;8.342;2022-12-07T07:45:16;12.90;;;8.60;;
61640;SDS011;62201;49.966;8.342;2022-12-07T07:47:42;13.57;;;9.23;;
61640;SDS011;62201;49.966;8.342;2022-12-07T07:50:07;13.87;;;8.80;;
61640;SDS011;62201;49.966;8.342;2022-12-07T07:52:33;12.43;;;8.73;;
61640;SDS011;62201;49.966;8.342;2022-12-07T07:54:58;11.73;;;8.50;;
61640;SDS011;62201;49.966;8.342;2022-12-07T07:57:23;12.07;;;9.03;;
61640;SDS011;62201;49.966;8.342;2022-12-07T07:59:49;13.57;;;8.53;;
61640;SDS011;62201;49.966;8.342;2022-12-07T08:02:15;12.70;;;8.40;;
61640;SDS011;62201;49.966;8.342;2022-12-07T08:04:43;12.33;;;8.20;;
61640;SDS011;62201;49.966;8.342;2022-12-07T08:07:10;12.33;;;8.73;;
61640;SDS011;62201;49.966;8.342;2022-12-07T08:09:37;12.67;;;8.50;;
61640;SDS011;62201;49.966;8.342;2022-12-07T08:12:03;11.83;;;8.40;;
61640;SDS011;62201;49.966;8.342;2022-12-07T08:14:28;13.00;;;8.53;;
61640;SDS011;62201;49.966;8.342;2022-12-07T08:16:54;12.17;;;8.20;;
61640;SDS011;62201;49.966;8.342;2022-12-07T08:19:20;12.03;;;8.47;;
61640;SDS011;62201;49.966;8.342;2022-12-07T08:21:45;15.53;;;8.10;;
61640;SDS011;62201;49.966;8.342;2022-12-07T08:24:11;10.97;;;8.13;;
61640;SDS011;62201;49.966;8.342;2022-12-07T08:26:37;11.23;;;8.10;;
61640;SDS011;62201;49.966;8.342;2022-12-07T08:29:02;10.20;;;7.60;;
61640;SDS011;62201;49.966;8.342;2022-12-07T08:31:27;9.73;;;7.40;;
61640;SDS011;62201;49.966;8.342;2022-12-07T08:33:53;10.73;;;7.47;;
61640;SDS011;62201;49.966;8.342;2022-12-07T08:36:19;13.73;;;7.73;;
61640;SDS011;62201;49.966;8.342;2022-12-07T08:38:46;13.70;;;8.30;;
61640;SDS011;62201;49.966;8.342;2022-12-07T08:41:12;11.87;;;8.20;;
61640;SDS011;62201;49.966;8.342;2022-12-07T08:43:37;11.43;;;8.07;;
61640;SDS011;62201;49.966;8.342;2022-12-07T08:48:37;11.53;;;7.50;;
61640;SDS011;62201;49.966;8.342;2022-12-07T08:51:06;13.17;;;8.23;;
61640;SDS011;62201;49.966;8.342;2022-12-07T08:53:32;11.10;;;7.57;;
61640;SDS011;62201;49.966;8.342;2022-12-07T08:55:59;14.23;;;7.43;;
61640;SDS011;62201;49.966;8.342;2022-12-07T08:58:25;9.47;;;6.70;;
61640;SDS011;62201;49.966;8.342;2022-12-07T09:00:50;10.40;;;7.13;;
61640;SDS011;62201;49.966;8.342;2022-12-07T09:03:16;11.17;;;7.43;;
61640;SDS011;62201;49.966;8.342;2022-12-07T09:05:41;13.03;;;7.20;;
61640;SDS011;62201;49.966;8.342;2022-12-07T09:08:06;10.00;;;6.97;;
61640;SDS011;62201;49.966;8.342;2022-12-07T09:10:33;9.07;;;6.63;;
61640;SDS011;62201;49.966;8.342;2022-12-07T09:12:58;11.17;;;7.10;;
61640;SDS011;62201;49.966;8.342;2022-12-07T09:15:26;13.57;;;6.30;;
61640;SDS011;62201;49.966;8.342;2022-12-07T09:17:52;10.83;;;6.67;;
61640;SDS011;62201;49.966;8.342;2022-12-07T09:20:17;11.57;;;7.07;;
61640;SDS011;62201;49.966;8.342;2022-12-07T09:22:43;9.30;;;7.40;;
61640;SDS011;62201;49.966;8.342;2022-12-07T09:25:08;9.00;;;6.60;;
61640;SDS011;62201;49.966;8.342;2022-12-07T09:27:34;11.43;;;7.37;;
61640;SDS011;62201;49.966;8.342;2022-12-07T09:29:59;9.80;;;6.47;;
61640;SDS011;62201;49.966;8.342;2022-12-07T09:32:24;11.20;;;6.37;;
61640;SDS011;62201;49.966;8.342;2022-12-07T09:34:50;9.20;;;6.00;;
61640;SDS011;62201;49.966;8.342;2022-12-07T09:37:15;10.97;;;5.80;;
61640;SDS011;62201;49.966;8.342;2022-12-07T09:39:41;11.70;;;8.03;;
61640;SDS011;62201;49.966;8.342;2022-12-07T09:42:06;15.23;;;9.30;;
61640;SDS011;62201;49.966;8.342;2022-12-07T09:44:33;14.77;;;9.60;;
61640;SDS011;62201;49.966;8.342;2022-12-07T09:47:00;13.50;;;9.67;;
61640;SDS011;62201;49.966;8.342;2022-12-07T09:49:27;12.77;;;9.20;;
61640;SDS011;62201;49.966;8.342;2022-12-07T09:52:00;16.17;;;8.60;;
61640;SDS011;62201;49.966;8.342;2022-12-07T09:54:41;13.43;;;9.30;;
61640;SDS011;62201;49.966;8.342;2022-12-07T09:57:10;14.13;;;9.57;;
61640;SDS011;62201;49.966;8.342;2022-12-07T09:59:37;13.70;;;9.20;;
61640;SDS011;62201;49.966;8.342;2022-12-07T10:05:00;12.63;;;7.53;;
61640;SDS011;62201;49.966;8.342;2022-12-07T10:07:26;8.20;;;4.77;;
61640;SDS011;62201;49.966;8.342;2022-12-07T10:09:51;9.53;;;5.07;;
61640;SDS011;62201;49.966;8.342;2022-12-07T10:12:17;9.07;;;3.80;;
61640;SDS011;62201;49.966;8.342;2022-12-07T10:17:29;10.07;;;3.92;;
61640;SDS011;62201;49.966;8.342;2022-12-07T10:20:19;9.30;;;4.00;;
61640;SDS011;62201;49.966;8.342;2022-12-07T10:23:01;10.17;;;4.47;;
61640;SDS011;62201;49.966;8.342;2022-12-07T10:25:37;7.73;;;3.87;;
61640;SDS011;62201;49.966;8.342;2022-12-07T10:28:16;9.23;;;4.30;;
61640;SDS011;62201;49.966;8.342;2022-12-07T10:33:29;6.87;;;3.63;;
61640;SDS011;62201;49.966;8.342;2022-12-07T10:36:00;6.70;;;3.37;;
61640;SDS011;62201;49.966;8.342;2022-12-07T10:38:43;8.27;;;3.83;;
61640;SDS011;62201;49.966;8.342;2022-12-07T10:41:10;7.13;;;3.77;;
61640;SDS011;62201;49.966;8.342;2022-12-07T10:43:36;6.37;;;2.97;;
61640;SDS011;62201;49.966;8.342;2022-12-07T11:00:19;11.33;;;2.73;;
61640;SDS011;62201;49.966;8.342;2022-12-07T11:05:56;6.53;;;2.40;;
61640;SDS011;62201;49.966;8.342;2022-12-07T11:08:44;8.60;;;2.38;;
61640;SDS011;62201;49.966;8.342;2022-12-07T11:16:43;7.45;;;2.20;;
61640;SDS011;62201;49.966;8.342;2022-12-07T11:22:13;5.13;;;2.00;;
61640;SDS011;62201;49.966;8.342;2022-12-07T11:27:55;5.47;;;2.03;;
61640;SDS011;62201;49.966;8.342;2022-12-07T11:33:44;6.28;;;2.10;;
61640;SDS011;62201;49.966;8.342;2022-12-07T11:36:31;9.13;;;2.20;;
61640;SDS011;62201;49.966;8.342;2022-12-07T11:39:05;5.07;;;1.73;;
61640;SDS011;62201;49.966;8.342;2022-12-07T11:41:52;5.90;;;1.88;;
61640;SDS011;62201;49.966;8.342;2022-12-07T11:49:51;6.57;;;1.33;;
61640;SDS011;62201;49.966;8.342;2022-12-07T11:52:42;4.40;;;1.58;;
61640;SDS011;62201;49.966;8.342;2022-12-07T11:55:18;5.18;;;1.15;;
61640;SDS011;62201;49.966;8.342;2022-12-07T11:58:04;3.80;;;1.13;;
61640;SDS011;62201;49.966;8.342;2022-12-07T12:00:43;6.65;;;1.35;;
61640;SDS011;62201;49.966;8.342;2022-12-07T12:03:10;3.42;;;1.33;;
61640;SDS011;62201;49.966;8.342;2022-12-07T12:05:48;4.78;;;1.25;;
61640;SDS011;62201;49.966;8.342;2022-12-07T12:08:19;3.58;;;1.45;;
61640;SDS011;62201;49.966;8.342;2022-12-07T12:21:36;5.33;;;1.40;;
61640;SDS011;62201;49.966;8.342;2022-12-07T12:24:13;3.10;;;1.20;;
61640;SDS011;62201;49.966;8.342;2022-12-07T12:26:50;2.93;;;1.33;;
61640;SDS011;62201;49.966;8.342;2022-12-07T12:29:35;5.90;;;1.30;;
61640;SDS011;62201;49.966;8.342;2022-12-07T12:32:04;3.43;;;1.00;;
61640;SDS011;62201;49.966;8.342;2022-12-07T12:37:49;10.02;;;1.42;;
61640;SDS011;62201;49.966;8.342;2022-12-07T12:42:47;4.93;;;1.90;;
61640;SDS011;62201;49.966;8.342;2022-12-07T12:48:02;6.40;;;1.37;;
61640;SDS011;62201;49.966;8.342;2022-12-07T12:50:46;8.10;;;1.50;;
61640;SDS011;62201;49.966;8.342;2022-12-07T12:53:16;5.13;;;1.00;;
61640;SDS011;62201;49.966;8.342;2022-12-07T12:56:11;6.13;;;1.23;;
61640;SDS011;62201;49.966;8.342;2022-12-07T13:01:53;5.20;;;1.40;;
61640;SDS011;62201;49.966;8.342;2022-12-07T13:06:49;7.17;;;1.50;;
61640;SDS011;62201;49.966;8.342;2022-12-07T13:09:25;5.60;;;1.37;;
61640;SDS011;62201;49.966;8.342;2022-12-07T13:11:58;6.43;;;1.30;;
61640;SDS011;62201;49.966;8.342;2022-12-07T13:14:40;4.70;;;1.40;;
61640;SDS011;62201;49.966;8.342;2022-12-07T13:20:03;7.20;;;1.03;;
61640;SDS011;62201;49.966;8.342;2022-12-07T13:25:23;6.47;;;1.70;;
61640;SDS011;62201;49.966;8.342;2022-12-07T13:28:02;4.97;;;1.30;;
61640;SDS011;62201;49.966;8.342;2022-12-07T13:30:40;7.17;;;1.20;;
61640;SDS011;62201;49.966;8.342;2022-12-07T13:33:10;6.00;;;1.30;;
61640;SDS011;62201;49.966;8.342;2022-12-07T13:35:37;6.07;;;2.40;;
61640;SDS011;62201;49.966;8.342;2022-12-07T13:38:05;6.57;;;2.50;;
61640;SDS011;62201;49.966;8.342;2022-12-07T13:40:41;5.30;;;1.63;;
61640;SDS011;62201;49.966;8.342;2022-12-07T13:43:14;6.30;;;2.50;;
61640;SDS011;62201;49.966;8.342;2022-12-07T13:45:41;7.43;;;1.37;;
61640;SDS011;62201;49.966;8.342;2022-12-07T13:50:55;5.80;;;1.00;;
61640;SDS011;62201;49.966;8.342;2022-12-07T13:53:21;6.10;;;1.50;;
61640;SDS011;62201;49.966;8.342;2022-12-07T13:55:48;5.97;;;1.40;;
61640;SDS011;62201;49.966;8.342;2022-12-07T13:58:14;4.63;;;1.20;;
61640;SDS011;62201;49.966;8.342;2022-12-07T14:00:40;8.93;;;1.53;;
61640;SDS011;62201;49.966;8.342;2022-12-07T14:05:38;5.33;;;1.70;;
61640;SDS011;62201;49.966;8.342;2022-12-07T14:15:50;5.40;;;1.87;;
61640;SDS011;62201;49.966;8.342;2022-12-07T14:21:14;6.20;;;1.63;;
61640;SDS011;62201;49.966;8.342;2022-12-07T14:23:41;5.30;;;1.30;;
61640;SDS011;62201;49.966;8.342;2022-12-07T14:28:40;4.80;;;1.58;;
61640;SDS011;62201;49.966;8.342;2022-12-07T14:31:11;7.07;;;2.10;;
61640;SDS011;62201;49.966;8.342;2022-12-07T14:33:41;4.97;;;1.63;;
61640;SDS011;62201;49.966;8.342;2022-12-07T14:36:10;4.37;;;1.50;;
61640;SDS011;62201;49.966;8.342;2022-12-07T14:38:37;5.87;;;1.73;;
61640;SDS011;62201;49.966;8.342;2022-12-07T14:41:03;5.00;;;1.47;;
61640;SDS011;62201;49.966;8.342;2022-12-07T14:43:48;6.33;;;1.60;;
61640;SDS011;62201;49.966;8.342;2022-12-07T14:46:14;4.97;;;1.50;;
61640;SDS011;62201;49.966;8.342;2022-12-07T14:48:39;5.17;;;1.80;;
61640;SDS011;62201;49.966;8.342;2022-12-07T14:51:05;4.40;;;1.93;;
61640;SDS011;62201;49.966;8.342;2022-12-07T14:53:33;9.57;;;1.97;;
61640;SDS011;62201;49.966;8.342;2022-12-07T14:56:02;7.90;;;1.90;;
61640;SDS011;62201;49.966;8.342;2022-12-07T14:58:30;6.10;;;2.03;;
61640;SDS011;62201;49.966;8.342;2022-12-07T15:00:56;5.47;;;1.60;;
61640;SDS011;62201;49.966;8.342;2022-12-07T15:03:21;4.97;;;1.87;;
61640;SDS011;62201;49.966;8.342;2022-12-07T15:05:47;6.87;;;1.40;;
61640;SDS011;62201;49.966;8.342;2022-12-07T15:08:12;4.90;;;1.60;;
61640;SDS011;62201;49.966;8.342;2022-12-07T15:10:38;7.07;;;1.60;;
61640;SDS011;62201;49.966;8.342;2022-12-07T15:13:05;5.63;;;1.90;;
61640;SDS011;62201;49.966;8.342;2022-12-07T15:15:50;3.73;;;1.60;;
61640;SDS011;62201;49.966;8.342;2022-12-07T15:18:16;49.27;;;25.47;;
61640;SDS011;62201;49.966;8.342;2022-12-07T15:20:42;4.43;;;2.23;;
61640;SDS011;62201;49.966;8.342;2022-12-07T15:23:09;5.70;;;2.90;;
61640;SDS011;62201;49.966;8.342;2022-12-07T15:25:35;5.23;;;1.77;;
61640;SDS011;62201;49.966;8.342;2022-12-07T15:28:00;7.17;;;3.47;;
61640;SDS011;62201;49.966;8.342;2022-12-07T15:30:27;9.47;;;1.83;;
61640;SDS011;62201;49.966;8.342;2022-12-07T15:32:52;10.40;;;4.37;;
61640;SDS011;62201;49.966;8.342;2022-12-07T15:35:18;8.00;;;1.67;;
61640;SDS011;62201;49.966;8.342;2022-12-07T15:37:44;16.70;;;1.87;;
61640;SDS011;62201;49.966;8.342;2022-12-07T15:40:10;8.50;;;1.93;;
61640;SDS011;62201;49.966;8.342;2022-12-07T15:42:36;6.13;;;1.97;;
61640;SDS011;62201;49.966;8.342;2022-12-07T15:45:03;6.30;;;1.80;;
61640;SDS011;62201;49.966;8.342;2022-12-07T15:47:36;5.17;;;1.80;;
61640;SDS011;62201;49.966;8.342;2022-12-07T15:50:04;4.60;;;1.40;;
61640;SDS011;62201;49.966;8.342;2022-12-07T15:52:31;4.53;;;1.80;;
61640;SDS011;62201;49.966;8.342;2022-12-07T15:54:57;6.40;;;2.10;;
61640;SDS011;62201;49.966;8.342;2022-12-07T15:57:24;4.73;;;1.47;;
61640;SDS011;62201;49.966;8.342;2022-12-07T15:59:50;6.10;;;1.30;;
61640;SDS011;62201;49.966;8.342;2022-12-07T16:02:16;6.67;;;1.50;;
61640;SDS011;62201;49.966;8.342;2022-12-07T16:04:41;11.17;;;1.80;;
61640;SDS011;62201;49.966;8.342;2022-12-07T16:07:06;8.37;;;2.50;;
61640;SDS011;62201;49.966;8.342;2022-12-07T16:09:32;7.80;;;2.40;;
61640;SDS011;62201;49.966;8.342;2022-12-07T16:11:58;5.83;;;1.70;;
61640;SDS011;62201;49.966;8.342;2022-12-07T16:14:23;8.63;;;2.80;;
61640;SDS011;62201;49.966;8.342;2022-12-07T16:16:49;7.30;;;2.47;;
61640;SDS011;62201;49.966;8.342;2022-12-07T16:19:14;7.30;;;2.87;;
61640;SDS011;62201;49.966;8.342;2022-12-07T16:21:39;7.30;;;3.20;;
61640;SDS011;62201;49.966;8.342;2022-12-07T16:24:05;6.73;;;2.07;;
61640;SDS011;62201;49.966;8.342;2022-12-07T16:26:31;4.80;;;1.80;;
61640;SDS011;62201;49.966;8.342;2022-12-07T16:28:57;8.47;;;2.37;;
61640;SDS011;62201;49.966;8.342;2022-12-07T16:31:23;8.23;;;2.00;;
61640;SDS011;62201;49.966;8.342;2022-12-07T16:33:52;7.57;;;1.90;;
61640;SDS011;62201;49.966;8.342;2022-12-07T16:36:19;6.77;;;2.20;;
61640;SDS011;62201;49.966;8.342;2022-12-07T16:38:47;5.67;;;2.60;;
61640;SDS011;62201;49.966;8.342;2022-12-07T16:41:13;7.90;;;2.87;;
61640;SDS011;62201;49.966;8.342;2022-12-07T16:43:39;6.47;;;3.10;;
61640;SDS011;62201;49.966;8.342;2022-12-07T16:46:04;8.03;;;3.10;;
61640;SDS011;62201;49.966;8.342;2022-12-07T16:48:30;6.90;;;2.87;;